Time;durP1;ratioP1;P1;durP2;ratioP2;P2;SDS_P1;SDS_P2;PMS_P1;PMS_P2;Temp;Humidity;BMP_temperature;BMP_pressure;BME280_temperature;BME280_humidity;BME280_pressure;Samples;Min_cycle;Max_cycle;Signal;HPM_P1;HPM_P2
2023/09/11 00:00:31;;;;;;;9.68;5.72;;;;;18.10;94328.00;;;;7396668;19;20678;-73
2023/09/11 00:03:00;;;;;;;11.13;5.07;;;;;18.00;94323.00;;;;7395030;19;20588;-76
2023/09/11 00:05:30;;;;;;;9.40;5.40;;;;;18.10;94322.00;;;;7398167;19;20155;-72
2023/09/11 00:08:08;;;;;;;8.40;5.43;;;;;18.30;94316.00;;;;7397465;19;20132;-73
2023/09/11 00:10:36;;;;;;;10.73;5.47;;;;;18.30;94314.00;;;;7395886;19;20782;-74
2023/09/11 00:13:11;;;;;;;8.13;5.20;;;;;18.20;94311.00;;;;7398704;19;20579;-71
2023/09/11 00:15:45;;;;;;;6.05;5.40;;;;;18.20;94309.00;;;;7394703;19;20524;-74
2023/09/11 00:18:26;;;;;;;9.82;5.25;;;;;18.30;94317.00;;;;7398236;19;20608;-73
2023/09/11 00:20:54;;;;;;;6.32;5.13;;;;;18.40;94308.00;;;;7396527;19;20670;-73
2023/09/11 00:23:29;;;;;;;13.00;5.57;;;;;18.40;94308.00;;;;7397210;19;20136;-74
2023/09/11 00:25:56;;;;;;;7.65;5.75;;;;;18.30;94305.00;;;;7392871;19;20168;-74
2023/09/11 00:28:30;;;;;;;10.57;6.03;;;;;18.30;94293.00;;;;7397785;19;20150;-73
2023/09/11 00:31:01;;;;;;;9.48;5.72;;;;;18.30;94300.00;;;;7395016;19;20141;-73
2023/09/11 00:33:35;;;;;;;8.63;5.80;;;;;18.40;94292.00;;;;7397757;19;20136;-75
2023/09/11 00:36:09;;;;;;;10.30;5.78;;;;;18.50;94285.00;;;;7395266;19;20145;-73
2023/09/11 00:38:37;;;;;;;16.50;6.07;;;;;18.40;94294.00;;;;7396667;19;20140;-71
2023/09/11 00:41:12;;;;;;;11.77;5.07;;;;;18.60;94284.00;;;;7395305;19;20143;-75
2023/09/11 00:43:40;;;;;;;11.05;5.53;;;;;18.60;94279.00;;;;7395444;19;20152;-73
2023/09/11 00:46:16;;;;;;;9.93;5.15;;;;;18.70;94277.00;;;;7394965;19;20637;-74
2023/09/11 00:48:44;;;;;;;9.00;5.10;;;;;18.70;94275.00;;;;7395825;19;20612;-74
2023/09/11 00:51:14;;;;;;;9.38;5.25;;;;;18.70;94267.00;;;;7394773;19;20612;-72
2023/09/11 00:53:48;;;;;;;8.77;4.90;;;;;18.60;94261.00;;;;7393362;19;20148;-74
2023/09/11 00:56:17;;;;;;;8.30;4.97;;;;;18.60;94263.00;;;;7395342;19;20141;-71
2023/09/11 00:58:53;;;;;;;5.90;4.85;;;;;18.60;94266.00;;;;7390369;19;20464;-72
2023/09/11 01:01:22;;;;;;;5.70;4.82;;;;;18.60;94263.00;;;;7387397;19;20287;-74
2023/09/11 01:04:05;;;;;;;7.93;5.20;;;;;18.60;94259.00;;;;7392891;19;20276;-74
2023/09/11 01:06:33;;;;;;;8.48;5.53;;;;;18.60;94261.00;;;;7395820;19;20616;-76
2023/09/11 01:09:07;;;;;;;9.93;4.88;;;;;18.60;94251.00;;;;7396100;19;20140;-78
2023/09/11 01:11:40;;;;;;;6.28;4.90;;;;;18.60;94257.00;;;;7394463;19;20169;-77
2023/09/11 01:14:15;;;;;;;5.80;5.20;;;;;18.60;94250.00;;;;7393705;19;20140;-77
2023/09/11 01:16:58;;;;;;;7.32;4.97;;;;;18.60;94250.00;;;;7392318;19;20268;-78
2023/09/11 01:19:53;;;;;;;7.00;5.30;;;;;18.40;94247.00;;;;7393900;19;20148;-77
2023/09/11 01:22:49;;;;;;;9.50;5.15;;;;;18.40;94249.00;;;;7396124;19;20133;-78
2023/09/11 01:25:51;;;;;;;9.02;5.45;;;;;18.50;94241.00;;;;7394167;19;20137;-76
2023/09/11 01:28:47;;;;;;;10.57;5.65;;;;;18.40;94243.00;;;;7394183;19;20147;-76
2023/09/11 01:31:24;;;;;;;10.18;5.47;;;;;18.40;94246.00;;;;7394501;19;20149;-76
2023/09/11 01:34:02;;;;;;;9.10;5.85;;;;;18.30;94254.00;;;;7393903;19;20135;-76
2023/09/11 01:36:35;;;;;;;9.30;5.40;;;;;18.30;94241.00;;;;7393654;19;20157;-77
2023/09/11 01:39:04;;;;;;;6.95;5.53;;;;;18.40;94236.00;;;;7394181;19;20144;-80
2023/09/11 01:41:45;;;;;;;7.85;5.95;;;;;18.50;94244.00;;;;7393164;19;20132;-78
2023/09/11 01:44:33;;;;;;;11.20;5.22;;;;;18.60;94238.00;;;;7392794;19;20149;-76
2023/09/11 01:47:09;;;;;;;8.73;5.32;;;;;18.60;94236.00;;;;7395115;19;20325;-78
2023/09/11 01:49:38;;;;;;;9.00;5.70;;;;;18.70;94242.00;;;;7394294;19;20129;-76
2023/09/11 01:52:09;;;;;;;10.30;5.60;;;;;18.90;94242.00;;;;7393163;19;20137;-76
2023/09/11 01:54:43;;;;;;;8.35;5.65;;;;;19.20;94242.00;;;;7395501;19;20143;-77
2023/09/11 01:57:10;;;;;;;5.85;4.97;;;;;19.00;94235.00;;;;7394067;19;20137;-75
2023/09/11 01:59:44;;;;;;;8.82;5.32;;;;;18.80;94242.00;;;;7392577;19;20608;-76
2023/09/11 02:02:29;;;;;;;9.30;5.40;;;;;19.10;94237.00;;;;7391080;19;20180;-76
2023/09/11 02:05:04;;;;;;;8.30;5.43;;;;;19.30;94235.00;;;;7394917;19;20660;-81
2023/09/11 02:07:38;;;;;;;8.32;5.55;;;;;19.30;94240.00;;;;7394671;19;20135;-77
2023/09/11 02:10:14;;;;;;;8.52;5.85;;;;;19.10;94239.00;;;;7393744;19;20619;-78
2023/09/11 02:12:42;;;;;;;7.72;5.68;;;;;19.00;94230.00;;;;7397400;19;20133;-76
2023/09/11 02:15:22;;;;;;;8.90;5.65;;;;;19.10;94238.00;;;;7400968;19;20129;-76
2023/09/11 02:17:56;;;;;;;6.88;5.50;;;;;19.20;94244.00;;;;7400164;19;20125;-74
2023/09/11 02:20:30;;;;;;;9.32;6.00;;;;;19.20;94242.00;;;;7401623;19;20141;-77
2023/09/11 02:22:59;;;;;;;10.50;5.78;;;;;19.20;94235.00;;;;7401262;19;20137;-75
2023/09/11 02:25:32;;;;;;;7.25;5.70;;;;;19.10;94242.00;;;;7400791;19;20929;-74
2023/09/11 02:28:01;;;;;;;9.23;6.00;;;;;19.30;94238.00;;;;7401960;19;20129;-76
2023/09/11 02:30:35;;;;;;;7.85;5.85;;;;;19.00;94233.00;;;;7398033;19;20953;-75
2023/09/11 02:33:12;;;;;;;10.95;5.55;;;;;19.10;94237.00;;;;7400094;19;20675;-74
2023/09/11 02:35:56;;;;;;;8.60;5.90;;;;;19.30;94225.00;;;;7402138;19;20123;-76
2023/09/11 02:38:31;;;;;;;8.90;5.60;;;;;19.30;94236.00;;;;7402017;19;20133;-76
2023/09/11 02:41:07;;;;;;;10.45;5.65;;;;;19.20;94235.00;;;;7398775;19;20157;-74
2023/09/11 02:43:43;;;;;;;9.80;6.03;;;;;19.20;94236.00;;;;7401184;19;20143;-73
2023/09/11 02:46:12;;;;;;;7.03;5.90;;;;;19.30;94236.00;;;;7398853;19;20611;-75
2023/09/11 02:48:48;;;;;;;11.73;6.28;;;;;19.40;94232.00;;;;7398677;19;20480;-75
2023/09/11 02:51:17;;;;;;;8.60;6.13;;;;;19.40;94240.00;;;;7398590;19;20196;-77
2023/09/11 02:53:52;;;;;;;9.82;6.10;;;;;19.50;94236.00;;;;7400904;19;20140;-75
2023/09/11 02:56:19;;;;;;;7.30;5.82;;;;;19.40;94232.00;;;;7399947;19;20144;-76
2023/09/11 02:58:55;;;;;;;11.20;5.72;;;;;19.40;94230.00;;;;7401497;19;20484;-76
2023/09/11 03:01:30;;;;;;;9.43;6.22;;;;;19.50;94233.00;;;;7397855;19;20193;-74
2023/09/11 03:04:04;;;;;;;9.88;6.65;;;;;19.60;94228.00;;;;7398371;19;20174;-74
2023/09/11 03:06:34;;;;;;;10.73;5.97;;;;;19.40;94226.00;;;;7400173;19;20148;-76
2023/09/11 03:09:10;;;;;;;9.82;6.43;;;;;19.30;94232.00;;;;7399117;19;20598;-76
2023/09/11 03:11:43;;;;;;;7.78;5.97;;;;;19.00;94219.00;;;;7395953;19;20141;-75
2023/09/11 03:14:13;;;;;;;8.40;5.57;;;;;19.20;94221.00;;;;7398971;19;20467;-75
2023/09/11 03:16:53;;;;;;;9.60;6.50;;;;;19.70;94221.00;;;;7398618;19;20152;-75
2023/09/11 03:19:28;;;;;;;13.05;6.47;;;;;19.90;94227.00;;;;7398325;19;20657;-76
2023/09/11 03:22:02;;;;;;;8.10;6.10;;;;;19.70;94220.00;;;;7398035;19;20133;-75
2023/09/11 03:24:36;;;;;;;11.50;6.20;;;;;19.70;94222.00;;;;7398834;19;20133;-76
2023/09/11 03:27:05;;;;;;;12.38;6.22;;;;;19.50;94218.00;;;;7397897;19;21040;-75
2023/09/11 03:29:39;;;;;;;10.90;6.45;;;;;19.40;94223.00;;;;7400398;19;20133;-75
2023/09/11 03:32:09;;;;;;;9.55;6.18;;;;;19.40;94216.00;;;;7397368;19;20133;-73
2023/09/11 03:34:37;;;;;;;7.53;5.47;;;;;19.20;94219.00;;;;7396939;19;20513;-75
2023/09/11 03:37:10;;;;;;;10.43;6.30;;;;;19.30;94226.00;;;;7397841;19;20129;-72
2023/09/11 03:39:46;;;;;;;8.88;5.57;;;;;19.50;94220.00;;;;7399416;19;20197;-75
2023/09/11 03:42:17;;;;;;;9.73;6.10;;;;;19.20;94222.00;;;;7397106;19;20155;-75
2023/09/11 03:44:50;;;;;;;8.85;5.88;;;;;19.00;94218.00;;;;7397833;19;20689;-75
2023/09/11 03:47:25;;;;;;;9.77;6.28;;;;;18.80;94212.00;;;;7399142;19;20479;-74
2023/09/11 03:50:00;;;;;;;8.30;6.25;;;;;18.60;94215.00;;;;7397565;19;20137;-76
2023/09/11 03:52:34;;;;;;;9.00;6.57;;;;;18.60;94211.00;;;;7397324;19;20161;-77
2023/09/11 03:55:03;;;;;;;8.13;6.25;;;;;18.60;94212.00;;;;7396747;19;20140;-75
2023/09/11 03:57:40;;;;;;;8.07;7.13;;;;;18.70;94221.00;;;;7398344;19;20140;-76
2023/09/11 04:00:08;;;;;;;11.13;6.35;;;;;18.60;94211.00;;;;7397223;19;20156;-74
2023/09/11 04:02:44;;;;;;;9.00;5.93;;;;;18.60;94212.00;;;;7396981;19;20137;-73
2023/09/11 04:05:20;;;;;;;10.85;6.40;;;;;18.40;94216.00;;;;7396667;19;20128;-73
2023/09/11 04:07:55;;;;;;;10.85;6.88;;;;;18.50;94212.00;;;;7398091;19;20492;-75
2023/09/11 04:10:30;;;;;;;8.35;6.10;;;;;18.40;94214.00;;;;7396080;19;20144;-74
2023/09/11 04:13:04;;;;;;;8.27;5.68;;;;;18.40;94211.00;;;;7396683;19;20638;-72
2023/09/11 04:15:38;;;;;;;7.55;6.47;;;;;18.40;94214.00;;;;7395873;19;20140;-75
2023/09/11 04:18:20;;;;;;;9.13;6.32;;;;;18.30;94220.00;;;;7398119;19;20132;-75
2023/09/11 04:20:49;;;;;;;13.77;6.38;;;;;18.30;94211.00;;;;7396581;19;20146;-75
2023/09/11 04:23:25;;;;;;;8.27;6.07;;;;;18.40;94212.00;;;;7397964;19;20484;-75
2023/09/11 04:26:02;;;;;;;7.03;6.25;;;;;18.40;94206.00;;;;7397864;19;20133;-76
2023/09/11 04:28:38;;;;;;;9.65;6.13;;;;;18.20;94210.00;;;;7395416;19;20501;-74
2023/09/11 04:31:11;;;;;;;8.75;6.47;;;;;18.10;94210.00;;;;7394304;19;20151;-74
2023/09/11 04:33:45;;;;;;;8.65;5.90;;;;;18.00;94212.00;;;;7396269;19;20160;-75
2023/09/11 04:36:13;;;;;;;9.38;6.20;;;;;18.10;94208.00;;;;7392872;19;20184;-76
2023/09/11 04:38:49;;;;;;;10.88;6.15;;;;;18.10;94203.00;;;;7396155;19;20144;-74
2023/09/11 04:41:24;;;;;;;7.65;6.30;;;;;18.20;94203.00;;;;7395126;19;20485;-80
2023/09/11 04:44:00;;;;;;;8.18;5.93;;;;;18.20;94204.00;;;;7394210;19;20136;-77
2023/09/11 04:46:34;;;;;;;7.50;5.63;;;;;18.30;94203.00;;;;7395628;19;20128;-74
2023/09/11 04:49:02;;;;;;;10.02;5.82;;;;;18.30;94208.00;;;;7395916;19;20588;-74
2023/09/11 04:51:37;;;;;;;11.07;6.20;;;;;18.20;94203.00;;;;7393734;19;21248;-74
2023/09/11 04:54:05;;;;;;;7.70;6.30;;;;;18.30;94214.00;;;;7395489;19;20144;-73
2023/09/11 04:56:39;;;;;;;8.95;6.15;;;;;18.20;94210.00;;;;7394420;19;20139;-72
2023/09/11 04:59:13;;;;;;;7.70;5.65;;;;;18.30;94206.00;;;;7391956;19;20145;-75
2023/09/11 05:01:46;;;;;;;8.30;5.95;;;;;18.20;94216.00;;;;7393558;19;20140;-75
2023/09/11 05:04:21;;;;;;;7.38;6.40;;;;;18.10;94218.00;;;;7395329;19;20164;-76
2023/09/11 05:06:57;;;;;;;7.63;6.47;;;;;18.00;94215.00;;;;7396600;19;20151;-76
2023/09/11 05:09:34;;;;;;;10.65;6.43;;;;;18.10;94219.00;;;;7395645;19;20614;-77
2023/09/11 05:12:08;;;;;;;9.57;6.30;;;;;18.00;94214.00;;;;7393583;19;20144;-74
2023/09/11 05:14:36;;;;;;;8.25;5.50;;;;;17.90;94212.00;;;;7394897;19;20147;-74
2023/09/11 05:17:18;;;;;;;9.48;6.57;;;;;17.90;94210.00;;;;7395373;19;20141;-75
2023/09/11 05:19:46;;;;;;;9.57;6.60;;;;;18.00;94212.00;;;;7394036;19;20129;-73
2023/09/11 05:22:21;;;;;;;10.55;6.32;;;;;18.10;94212.00;;;;7390425;19;20635;-76
2023/09/11 05:24:55;;;;;;;8.27;6.72;;;;;18.20;94214.00;;;;7392991;19;20129;-76
2023/09/11 05:27:29;;;;;;;10.85;6.10;;;;;18.30;94214.00;;;;7396129;19;20584;-73
2023/09/11 05:29:57;;;;;;;8.88;6.32;;;;;18.40;94215.00;;;;7394100;19;20638;-73
2023/09/11 05:32:32;;;;;;;8.10;6.30;;;;;18.50;94217.00;;;;7392684;19;20157;-75
2023/09/11 05:35:07;;;;;;;10.27;6.07;;;;;18.50;94214.00;;;;7395814;19;20156;-73
2023/09/11 05:37:44;;;;;;;8.13;6.32;;;;;18.50;94216.00;;;;7391847;19;20260;-73
2023/09/11 05:40:20;;;;;;;10.82;6.07;;;;;18.50;94217.00;;;;7396177;19;20156;-73
2023/09/11 05:42:53;;;;;;;8.10;6.15;;;;;18.60;94220.00;;;;7395027;19;20600;-76
2023/09/11 05:45:27;;;;;;;7.40;6.13;;;;;18.70;94228.00;;;;7393878;19;20133;-74
2023/09/11 05:47:56;;;;;;;7.13;5.90;;;;;18.80;94224.00;;;;7402210;19;20135;-76
2023/09/11 05:50:32;;;;;;;9.38;6.13;;;;;19.00;94218.00;;;;7402302;19;20157;-73
2023/09/11 05:53:01;;;;;;;11.95;6.53;;;;;19.10;94224.00;;;;7401299;19;20145;-73
2023/09/11 05:55:36;;;;;;;23.08;7.53;;;;;19.10;94222.00;;;;7401746;19;20156;-73
2023/09/11 05:58:10;;;;;;;10.43;6.15;;;;;19.20;94219.00;;;;7397993;19;20132;-72
2023/09/11 06:00:39;;;;;;;8.43;5.90;;;;;19.50;94222.00;;;;7399441;19;20177;-74
2023/09/11 06:03:14;;;;;;;12.15;7.03;;;;;19.60;94228.00;;;;7400910;19;20588;-75
2023/09/11 06:05:45;;;;;;;12.65;6.40;;;;;19.80;94221.00;;;;7402501;19;20204;-72
2023/09/11 06:08:23;;;;;;;11.43;5.90;;;;;19.90;94230.00;;;;7399855;19;20603;-74
2023/09/11 06:10:56;;;;;;;10.55;6.20;;;;;19.90;94227.00;;;;7401146;19;20151;-74
2023/09/11 06:13:24;;;;;;;7.53;6.40;;;;;20.00;94236.00;;;;7400473;19;20600;-73
2023/09/11 06:16:05;;;;;;;9.45;6.35;;;;;20.10;94229.00;;;;7399343;19;21036;-73
2023/09/11 06:18:33;;;;;;;7.85;5.97;;;;;20.30;94227.00;;;;7401421;19;20136;-74
2023/09/11 06:21:08;;;;;;;9.95;6.53;;;;;20.40;94225.00;;;;7400712;19;20628;-73
2023/09/11 06:23:42;;;;;;;7.47;6.20;;;;;20.70;94233.00;;;;7399145;19;20642;-76
2023/09/11 06:26:17;;;;;;;8.32;5.68;;;;;20.80;94236.00;;;;7400752;19;20203;-72
2023/09/11 06:28:45;;;;;;;7.80;5.93;;;;;21.00;94229.00;;;;7400508;19;20133;-74
2023/09/11 06:31:21;;;;;;;10.73;6.53;;;;;21.20;94222.00;;;;7398155;19;20147;-72
2023/09/11 06:33:55;;;;;;;10.45;6.13;;;;;21.30;94222.00;;;;7400022;19;20684;-76
2023/09/11 06:36:22;;;;;;;10.27;6.38;;;;;21.40;94222.00;;;;7400598;19;20148;-75
2023/09/11 06:38:57;;;;;;;6.40;5.72;;;;;21.60;94214.00;;;;7401877;19;20132;-72
2023/09/11 06:41:26;;;;;;;9.82;6.07;;;;;21.90;94214.00;;;;7400573;19;20500;-76
2023/09/11 06:44:02;;;;;;;6.10;5.50;;;;;22.10;94213.00;;;;7400029;19;20494;-74
2023/09/11 06:46:29;;;;;;;9.45;5.60;;;;;22.30;94219.00;;;;7399795;19;20144;-74
2023/09/11 06:49:03;;;;;;;7.07;5.90;;;;;22.40;94218.00;;;;7399859;19;20157;-74
2023/09/11 06:51:38;;;;;;;10.13;5.80;;;;;22.60;94218.00;;;;7400134;19;20132;-74
2023/09/11 06:54:14;;;;;;;8.50;6.00;;;;;22.90;94210.00;;;;7399885;19;20136;-74
2023/09/11 06:56:41;;;;;;;9.85;5.47;;;;;23.10;94205.00;;;;7398712;19;20622;-75
2023/09/11 06:59:09;;;;;;;6.82;5.57;;;;;23.20;94209.00;;;;7394661;19;20141;-75
2023/09/11 07:01:44;;;;;;;11.23;5.55;;;;;23.40;94215.00;;;;7399320;19;20159;-75
2023/09/11 07:04:13;;;;;;;8.75;5.60;;;;;23.60;94206.00;;;;7400532;19;20604;-75
2023/09/11 07:06:49;;;;;;;9.43;5.68;;;;;23.90;94215.00;;;;7399750;19;20619;-75
2023/09/11 07:09:16;;;;;;;7.22;6.22;;;;;24.10;94221.00;;;;7398963;19;20188;-74
2023/09/11 07:11:51;;;;;;;8.07;5.72;;;;;24.30;94216.00;;;;7398909;19;20667;-76
2023/09/11 07:14:26;;;;;;;6.93;5.55;;;;;24.10;94206.00;;;;7398399;19;20137;-77
2023/09/11 07:17:08;;;;;;;7.70;5.50;;;;;24.40;94208.00;;;;7395378;19;20655;-77
2023/09/11 07:19:45;;;;;;;9.27;5.78;;;;;24.60;94214.00;;;;7399447;19;20132;-77
2023/09/11 07:22:21;;;;;;;10.07;5.95;;;;;24.80;94213.00;;;;7394754;19;20150;-76
2023/09/11 07:24:54;;;;;;;10.02;5.53;;;;;25.00;94211.00;;;;7374906;19;20193;-75
2023/09/11 07:27:35;;;;;;;12.30;5.72;;;;;25.10;94203.00;;;;7386821;19;20132;-77
2023/09/11 07:30:10;;;;;;;9.25;5.40;;;;;25.20;94200.00;;;;7390010;19;20468;-76
2023/09/11 07:32:45;;;;;;;7.03;5.22;;;;;25.20;94200.00;;;;7389591;19;20140;-78
2023/09/11 07:35:22;;;;;;;9.45;5.30;;;;;25.20;94204.00;;;;7387139;19;20152;-77
2023/09/11 07:37:57;;;;;;;9.10;5.35;;;;;25.30;94207.00;;;;7388465;19;20172;-77
2023/09/11 07:40:32;;;;;;;12.98;6.00;;;;;25.60;94210.00;;;;7390373;19;20192;-76
2023/09/11 07:43:06;;;;;;;12.15;5.65;;;;;25.70;94207.00;;;;7390680;19;20164;-76
2023/09/11 07:45:42;;;;;;;11.75;5.20;;;;;25.60;94210.00;;;;7388697;19;20144;-78
2023/09/11 07:48:11;;;;;;;13.55;5.07;;;;;25.90;94213.00;;;;7387187;19;20591;-74
2023/09/11 07:50:47;;;;;;;10.32;5.28;;;;;25.80;94215.00;;;;7389110;19;20200;-76
2023/09/11 07:53:15;;;;;;;9.63;4.82;;;;;25.70;94210.00;;;;7386142;19;20129;-77
2023/09/11 07:55:43;;;;;;;6.72;4.93;;;;;25.80;94216.00;;;;7388164;19;20148;-74
2023/09/11 07:58:18;;;;;;;10.27;5.28;;;;;25.90;94225.00;;;;7386970;19;20132;-75
2023/09/11 08:00:53;;;;;;;8.95;4.97;;;;;26.10;94212.00;;;;7383324;19;20545;-76
2023/09/11 08:03:27;;;;;;;7.80;5.30;;;;;25.90;94217.00;;;;7385947;19;20212;-76
2023/09/11 08:06:05;;;;;;;6.70;5.18;;;;;26.20;94227.00;;;;7387997;19;20592;-80
2023/09/11 08:08:33;;;;;;;7.28;4.68;;;;;26.40;94231.00;;;;7387358;19;20136;-78
2023/09/11 08:11:19;;;;;;;8.90;5.40;;;;;26.40;94231.00;;;;7387723;19;20245;-79
2023/09/11 08:13:58;;;;;;;7.78;5.20;;;;;26.30;94231.00;;;;7387937;19;20150;-77
2023/09/11 08:16:38;;;;;;;8.88;5.28;;;;;26.60;94227.00;;;;7386057;19;20167;-80
2023/09/11 08:19:06;;;;;;;9.18;5.50;;;;;26.80;94232.00;;;;7384224;19;20124;-80
2023/09/11 08:21:40;;;;;;;5.65;4.97;;;;;26.90;94235.00;;;;7386562;19;20623;-77
2023/09/11 08:24:07;;;;;;;6.57;4.63;;;;;27.00;94231.00;;;;7387533;19;20166;-79
2023/09/11 08:26:42;;;;;;;8.65;5.20;;;;;27.10;94233.00;;;;7386601;19;20152;-80
2023/09/11 08:29:16;;;;;;;9.68;5.43;;;;;27.10;94231.00;;;;7384993;19;20136;-80
2023/09/11 08:31:49;;;;;;;11.55;4.85;;;;;27.20;94234.00;;;;7387678;19;20129;-78
2023/09/11 08:34:24;;;;;;;10.70;4.88;;;;;27.40;94231.00;;;;7386006;19;20584;-77
2023/09/11 08:36:59;;;;;;;8.70;5.07;;;;;27.50;94230.00;;;;7384711;19;20190;-78
2023/09/11 08:39:34;;;;;;;10.35;5.55;;;;;27.60;94239.00;;;;7384731;19;20454;-78
2023/09/11 08:42:09;;;;;;;9.57;4.88;;;;;27.70;94228.00;;;;7386942;19;20156;-79
2023/09/11 08:44:44;;;;;;;7.78;4.50;;;;;27.80;94224.00;;;;7384971;19;20128;-79
2023/09/11 08:47:23;;;;;;;9.15;5.28;;;;;28.30;94230.00;;;;7383317;19;20485;-77
2023/09/11 08:50:06;;;;;;;10.48;4.85;;;;;28.10;94224.00;;;;7386547;19;20144;-78
2023/09/11 08:52:42;;;;;;;11.85;4.63;;;;;28.10;94224.00;;;;7387806;19;20230;-80
2023/09/11 08:55:21;;;;;;;8.40;4.53;;;;;27.60;94225.00;;;;7386472;19;20140;-80
2023/09/11 08:58:01;;;;;;;9.77;4.70;;;;;27.60;94224.00;;;;7382626;19;20148;-80
2023/09/11 09:00:36;;;;;;;6.47;4.45;;;;;27.60;94224.00;;;;7382883;19;20136;-78
2023/09/11 09:03:10;;;;;;;7.10;4.38;;;;;28.00;94226.00;;;;7385297;19;20593;-79
2023/09/11 09:05:46;;;;;;;14.10;4.70;;;;;28.40;94226.00;;;;7384507;19;20156;-78
2023/09/11 09:08:14;;;;;;;7.50;4.25;;;;;28.20;94223.00;;;;7383205;19;20131;-79
2023/09/11 09:10:49;;;;;;;6.63;4.43;;;;;28.30;94223.00;;;;7385898;19;20188;-80
2023/09/11 09:13:20;;;;;;;16.52;4.70;;;;;28.60;94225.00;;;;7383446;19;20603;-80
2023/09/11 09:15:54;;;;;;;11.35;4.13;;;;;28.40;94229.00;;;;7384639;19;20129;-77
2023/09/11 09:18:34;;;;;;;6.50;4.35;;;;;28.70;94228.00;;;;7387314;19;20132;-76
2023/09/11 09:21:05;;;;;;;6.28;4.28;;;;;28.80;94224.00;;;;7384763;19;20519;-77
2023/09/11 09:23:40;;;;;;;7.15;4.38;;;;;28.40;94221.00;;;;7389585;19;20155;-75
2023/09/11 09:26:14;;;;;;;9.00;4.45;;;;;28.30;94226.00;;;;7391208;19;20133;-74
2023/09/11 09:28:47;;;;;;;11.85;4.40;;;;;28.10;94228.00;;;;7389994;19;20588;-76
2023/09/11 09:31:24;;;;;;;13.23;4.93;;;;;28.20;94224.00;;;;7391168;19;20166;-74
2023/09/11 09:33:55;;;;;;;7.72;4.55;;;;;28.40;94223.00;;;;7390378;19;20159;-77
2023/09/11 09:36:30;;;;;;;14.00;4.82;;;;;28.60;94224.00;;;;7391410;19;20149;-75
2023/09/11 09:38:58;;;;;;;7.38;4.45;;;;;28.80;94219.00;;;;7391358;19;20139;-76
2023/09/11 09:41:32;;;;;;;11.88;4.20;;;;;28.40;94219.00;;;;7389676;19;20212;-75
2023/09/11 09:44:07;;;;;;;12.32;4.65;;;;;28.40;94216.00;;;;7389237;19;20201;-77
2023/09/11 09:46:43;;;;;;;11.05;4.15;;;;;28.30;94215.00;;;;7390084;19;20148;-76
2023/09/11 09:49:15;;;;;;;10.52;4.60;;;;;28.90;94209.00;;;;7391219;19;20137;-75
2023/09/11 09:51:52;;;;;;;10.88;4.13;;;;;29.20;94202.00;;;;7389218;19;20148;-76
2023/09/11 09:54:44;;;;;;;11.63;5.32;;;;;29.30;94207.00;;;;7390091;19;20143;-74
2023/09/11 09:57:21;;;;;;;7.60;4.00;;;;;29.50;94203.00;;;;7392142;19;20180;-76
2023/09/11 10:00:00;;;;;;;9.48;4.82;;;;;29.50;94204.00;;;;7386435;19;20252;-77
2023/09/11 10:02:35;;;;;;;11.52;4.35;;;;;29.40;94203.00;;;;7391822;19;20188;-75
2023/09/11 10:05:05;;;;;;;9.93;4.35;;;;;29.30;94197.00;;;;7390478;19;20133;-75
2023/09/11 10:07:43;;;;;;;9.38;3.83;;;;;29.10;94204.00;;;;7390356;19;20151;-77
2023/09/11 10:10:25;;;;;;;6.32;4.43;;;;;28.90;94201.00;;;;7389378;19;20144;-75
2023/09/11 10:13:06;;;;;;;9.48;4.32;;;;;29.00;94197.00;;;;7389798;19;20132;-75
2023/09/11 10:15:43;;;;;;;9.68;4.20;;;;;28.90;94192.00;;;;7391574;19;20197;-75
2023/09/11 10:18:19;;;;;;;9.05;4.43;;;;;29.40;94188.00;;;;7389853;19;20160;-75
2023/09/11 10:20:54;;;;;;;11.38;5.25;;;;;29.30;94188.00;;;;7388209;19;20145;-76
2023/09/11 10:23:22;;;;;;;9.68;4.57;;;;;29.10;94196.00;;;;7390404;19;20165;-75
2023/09/11 10:26:02;;;;;;;5.45;3.90;;;;;29.20;94186.00;;;;7390120;19;20125;-75
2023/09/11 10:28:39;;;;;;;10.45;4.05;;;;;29.00;94188.00;;;;7389135;19;20635;-78
2023/09/11 10:31:35;;;;;;;9.18;4.50;;;;;29.80;94186.00;;;;7387526;19;20156;-77
2023/09/11 10:34:13;;;;;;;7.40;4.28;;;;;29.20;94184.00;;;;7386473;19;20140;-74
2023/09/11 10:36:46;;;;;;;9.40;4.63;;;;;29.00;94185.00;;;;7390522;19;20594;-76
2023/09/11 10:39:21;;;;;;;8.63;4.15;;;;;29.20;94159.00;;;;7388350;19;20153;-73
2023/09/11 10:41:49;;;;;;;10.20;4.88;;;;;29.70;94173.00;;;;7389123;19;20140;-74
2023/09/11 10:44:29;;;;;;;11.65;4.78;;;;;29.40;94185.00;;;;7393680;19;20633;-74
2023/09/11 10:47:03;;;;;;;9.70;4.80;;;;;29.30;94173.00;;;;7395001;19;20210;-73
2023/09/11 10:49:41;;;;;;;10.80;4.70;;;;;28.70;94172.00;;;;7388226;19;20618;-75
2023/09/11 10:52:11;;;;;;;7.00;4.22;;;;;29.30;94168.00;;;;7390830;19;20144;-74
2023/09/11 10:54:47;;;;;;;6.72;4.63;;;;;29.30;94166.00;;;;7390776;19;20128;-74
2023/09/11 10:57:15;;;;;;;8.38;4.20;;;;;29.20;94160.00;;;;7388871;19;20595;-74
2023/09/11 10:59:50;;;;;;;12.93;4.90;;;;;29.50;94170.00;;;;7386206;19;20210;-74
2023/09/11 11:02:22;;;;;;;12.65;4.65;;;;;30.10;94163.00;;;;7387232;19;20173;-75
2023/09/11 11:05:02;;;;;;;12.57;4.72;;;;;30.70;94158.00;;;;7390180;19;20145;-74
2023/09/11 11:07:31;;;;;;;11.40;4.82;;;;;30.20;94157.00;;;;7386651;19;20611;-74
2023/09/11 11:10:08;;;;;;;7.07;4.22;;;;;30.80;94151.00;;;;7391162;19;20139;-79
2023/09/11 11:12:46;;;;;;;8.02;4.70;;;;;31.20;94147.00;;;;7391776;19;20144;-76
2023/09/11 11:15:25;;;;;;;10.35;4.85;;;;;31.30;94149.00;;;;7391211;19;20462;-75
2023/09/11 11:18:22;;;;;;;8.57;4.85;;;;;31.60;94156.00;;;;7387931;19;20173;-75
2023/09/11 11:21:00;;;;;;;10.40;4.85;;;;;31.60;94155.00;;;;7389056;19;20639;-74
2023/09/11 11:23:33;;;;;;;9.57;4.80;;;;;31.80;94148.00;;;;7389725;19;20138;-76
2023/09/11 11:26:13;;;;;;;9.00;4.55;;;;;32.30;94143.00;;;;7391411;19;20182;-73
2023/09/11 11:28:42;;;;;;;10.65;5.20;;;;;32.50;94144.00;;;;7389301;19;20144;-75
2023/09/11 11:31:20;;;;;;;19.13;5.35;;;;;32.10;94143.00;;;;7388223;19;20603;-75
2023/09/11 11:33:50;;;;;;;14.27;4.97;;;;;32.60;94137.00;;;;7387897;19;20599;-75
2023/09/11 11:36:26;;;;;;;19.05;4.90;;;;;32.50;94149.00;;;;7387571;19;20513;-77
2023/09/11 11:39:01;;;;;;;15.38;5.22;;;;;32.60;94139.00;;;;7386736;19;20147;-76
2023/09/11 11:41:30;;;;;;;11.98;5.00;;;;;32.20;94140.00;;;;7388875;19;20583;-77
2023/09/11 11:44:05;;;;;;;13.18;4.72;;;;;32.20;94143.00;;;;7387423;19;20144;-77
2023/09/11 11:46:40;;;;;;;11.45;5.03;;;;;32.50;94146.00;;;;7386209;19;20588;-76
2023/09/11 11:49:19;;;;;;;8.07;5.05;;;;;32.90;94145.00;;;;7386305;19;20619;-77
2023/09/11 11:51:47;;;;;;;12.57;5.00;;;;;32.10;94143.00;;;;7389224;19;20125;-79
2023/09/11 11:54:25;;;;;;;9.93;4.68;;;;;32.20;94145.00;;;;7386329;19;20504;-75
2023/09/11 11:57:00;;;;;;;9.38;5.20;;;;;32.10;94147.00;;;;7386469;19;20132;-75
2023/09/11 11:59:40;;;;;;;9.35;4.90;;;;;32.30;94148.00;;;;7378267;19;20136;-78
2023/09/11 12:02:25;;;;;;;7.93;5.25;;;;;31.90;94147.00;;;;7384791;19;20691;-78
2023/09/11 12:05:10;;;;;;;11.07;4.95;;;;;32.60;94147.00;;;;7385383;19;20140;-79
2023/09/11 12:07:45;;;;;;;9.93;5.03;;;;;32.40;94148.00;;;;7387103;19;20616;-78
2023/09/11 12:10:19;;;;;;;9.43;4.80;;;;;31.90;94145.00;;;;7387629;19;20128;-77
2023/09/11 12:12:54;;;;;;;12.25;5.18;;;;;30.90;94149.00;;;;7386230;19;20124;-77
2023/09/11 12:15:29;;;;;;;16.00;5.75;;;;;31.80;94139.00;;;;7386759;19;20196;-74
2023/09/11 12:18:05;;;;;;;8.50;4.80;;;;;31.80;94140.00;;;;7386414;19;20182;-75
2023/09/11 12:20:51;;;;;;;8.57;5.15;;;;;31.70;94143.00;;;;7385794;19;20129;-76
2023/09/11 12:23:21;;;;;;;14.80;5.20;;;;;32.20;94138.00;;;;7386263;19;20136;-74
2023/09/11 12:25:57;;;;;;;14.40;5.80;;;;;32.70;94137.00;;;;7385305;19;20132;-74
2023/09/11 12:28:25;;;;;;;15.10;5.47;;;;;32.30;94141.00;;;;7385652;19;20595;-75
2023/09/11 12:31:00;;;;;;;13.95;5.32;;;;;31.60;94137.00;;;;7387984;19;20592;-75
2023/09/11 12:33:35;;;;;;;14.35;5.30;;;;;32.10;94135.00;;;;7386145;19;20191;-77
2023/09/11 12:36:10;;;;;;;9.43;4.97;;;;;32.30;94141.00;;;;7386198;19;20132;-74
2023/09/11 12:38:46;;;;;;;13.00;5.88;;;;;32.20;94134.00;;;;7384853;19;20144;-75
2023/09/11 12:41:21;;;;;;;10.35;5.20;;;;;31.90;94126.00;;;;7384363;19;20156;-77
2023/09/11 12:43:58;;;;;;;10.32;5.40;;;;;32.30;94121.00;;;;7385865;19;21720;-76
2023/09/11 12:46:26;;;;;;;9.13;5.60;;;;;32.50;94122.00;;;;7386333;19;20596;-74
2023/09/11 12:49:01;;;;;;;14.82;5.43;;;;;32.70;94121.00;;;;7386020;19;20143;-75